Time;durP1;ratioP1;P1;durP2;ratioP2;P2;SDS_P1;SDS_P2;PMS_P1;PMS_P2;Temp;Humidity;BMP_temperature;BMP_pressure;BME280_temperature;BME280_humidity;BME280_pressure;Samples;Min_cycle;Max_cycle;Signal;HPM_P1;HPM_P2
2022/07/27 00:01:13;;;;;;;5.20;4.70;;;20.50;78.30;;;;;;4993022;28;20184;-58
2022/07/27 00:03:39;;;;;;;6.27;5.20;;;20.50;78.40;;;;;;4977672;28;20226;-58
2022/07/27 00:06:06;;;;;;;4.93;4.53;;;20.40;78.30;;;;;;4993648;28;20177;-58
2022/07/27 00:08:32;;;;;;;6.27;4.70;;;20.40;78.40;;;;;;4993602;28;20188;-58
2022/07/27 00:10:58;;;;;;;5.87;4.53;;;20.40;78.50;;;;;;4993406;28;20187;-58
2022/07/27 00:13:24;;;;;;;4.70;4.30;;;20.40;78.50;;;;;;4993057;28;20235;-58
2022/07/27 00:15:49;;;;;;;5.33;4.77;;;20.40;78.50;;;;;;4977348;28;20279;-58
2022/07/27 00:18:15;;;;;;;6.60;5.00;;;20.40;78.60;;;;;;4977050;28;20228;-58
2022/07/27 00:20:41;;;;;;;5.27;4.80;;;20.40;78.80;;;;;;4967598;28;20184;-58
2022/07/27 00:23:07;;;;;;;5.50;4.90;;;20.40;78.80;;;;;;4975960;28;20235;-58
2022/07/27 00:25:34;;;;;;;6.23;4.33;;;20.40;78.90;;;;;;4976285;28;20283;-58
2022/07/27 00:28:00;;;;;;;7.10;4.90;;;20.30;78.70;;;;;;4991502;28;20224;-58
2022/07/27 00:30:25;;;;;;;5.43;4.63;;;20.30;78.80;;;;;;4993541;28;20223;-58
2022/07/27 00:32:52;;;;;;;4.77;4.37;;;20.40;78.90;;;;;;5009248;28;20257;-58
2022/07/27 00:35:18;;;;;;;6.10;4.87;;;20.30;78.80;;;;;;4992801;28;20232;-58
2022/07/27 00:37:43;;;;;;;5.63;4.50;;;20.30;79.00;;;;;;5002607;28;20227;-58
2022/07/27 00:40:10;;;;;;;7.57;4.40;;;20.30;78.90;;;;;;4995405;28;20245;-58
2022/07/27 00:42:36;;;;;;;5.93;5.07;;;20.30;78.80;;;;;;4993287;28;20199;-58
2022/07/27 00:45:03;;;;;;;5.43;4.93;;;20.30;78.80;;;;;;4993282;28;20189;-58
2022/07/27 00:47:30;;;;;;;5.10;4.60;;;20.20;78.80;;;;;;5000485;28;20195;-58
2022/07/27 00:49:57;;;;;;;7.80;4.93;;;20.20;78.80;;;;;;4993470;28;20196;-58
2022/07/27 00:52:24;;;;;;;4.37;3.97;;;20.20;78.90;;;;;;4983626;28;20216;-58
2022/07/27 00:54:50;;;;;;;5.80;4.60;;;20.20;79.10;;;;;;4993330;28;20188;-58
2022/07/27 00:57:16;;;;;;;4.80;4.37;;;20.30;79.10;;;;;;5005109;28;20206;-58
2022/07/27 00:59:42;;;;;;;6.43;4.63;;;20.30;79.10;;;;;;4980927;28;20200;-58
2022/07/27 01:02:08;;;;;;;5.87;4.70;;;20.30;79.00;;;;;;4979336;28;20203;-58
2022/07/27 01:04:35;;;;;;;5.00;4.50;;;20.30;78.90;;;;;;4980595;28;20195;-58
2022/07/27 01:07:04;;;;;;;5.17;4.50;;;20.30;79.00;;;;;;4996318;28;20188;-58
2022/07/27 01:12:17;;;;;;;5.47;4.40;;;20.30;79.00;;;;;;5011507;28;20222;-58
2022/07/27 01:14:44;;;;;;;8.30;4.30;;;20.30;78.90;;;;;;4997596;28;20283;-58
2022/07/27 01:17:09;;;;;;;7.13;5.30;;;20.30;79.00;;;;;;4992657;28;20193;-58
2022/07/27 01:19:35;;;;;;;5.37;4.27;;;20.30;79.00;;;;;;4986559;28;20191;-58
2022/07/27 01:22:02;;;;;;;6.47;4.90;;;20.30;79.10;;;;;;4995850;28;20196;-58
2022/07/27 01:24:28;;;;;;;5.03;4.33;;;20.30;78.90;;;;;;4980318;28;20264;-58
2022/07/27 01:26:53;;;;;;;5.97;4.63;;;20.30;78.60;;;;;;4963853;28;20280;-58
2022/07/27 01:29:19;;;;;;;5.70;4.43;;;20.30;79.00;;;;;;4978596;28;20208;-58
2022/07/27 01:31:45;;;;;;;5.30;4.43;;;20.30;78.90;;;;;;5013861;28;20278;-58
2022/07/27 01:34:10;;;;;;;8.50;4.53;;;20.30;78.90;;;;;;4996256;28;20192;-58
2022/07/27 01:36:36;;;;;;;5.20;4.23;;;20.30;79.00;;;;;;4995427;28;20287;-58
2022/07/27 01:39:02;;;;;;;5.43;4.63;;;20.30;78.90;;;;;;4995734;28;20265;-58
2022/07/27 01:41:28;;;;;;;4.70;4.30;;;20.30;78.70;;;;;;4995747;28;20221;-58
2022/07/27 01:43:54;;;;;;;6.00;4.23;;;20.30;78.80;;;;;;4964497;28;20227;-58
2022/07/27 01:46:19;;;;;;;4.23;3.83;;;20.30;79.10;;;;;;4997253;28;20219;-58
2022/07/27 01:48:45;;;;;;;4.57;4.17;;;20.30;79.10;;;;;;4992596;28;20193;-58
2022/07/27 01:51:11;;;;;;;5.20;4.40;;;20.20;79.20;;;;;;4989738;28;20199;-58
2022/07/27 01:53:36;;;;;;;4.80;4.40;;;20.20;79.60;;;;;;4995373;28;20188;-58
2022/07/27 01:56:02;;;;;;;4.90;4.33;;;20.20;79.50;;;;;;4987321;28;20289;-58
2022/07/27 01:58:28;;;;;;;5.10;4.60;;;20.20;79.30;;;;;;5009090;28;20220;-58
2022/07/27 02:00:54;;;;;;;5.80;4.50;;;20.30;79.20;;;;;;4963087;28;20235;-58
2022/07/27 02:03:19;;;;;;;5.07;4.57;;;20.20;79.40;;;;;;4994957;28;20191;-58
2022/07/27 02:05:45;;;;;;;5.60;4.37;;;20.20;79.60;;;;;;4979172;28;20196;-58
2022/07/27 02:08:12;;;;;;;4.43;4.00;;;20.20;79.60;;;;;;4998425;28;20207;-58
2022/07/27 02:12:34;;;;;;;5.30;4.07;;;20.20;79.80;;;;;;4995478;28;20281;-58
2022/07/27 02:13:24;;;;;;;4.13;3.77;;;20.20;79.60;;;;;;4995629;28;20243;-58
2022/07/27 02:15:50;;;;;;;4.77;4.37;;;20.30;79.60;;;;;;4995017;28;20196;-58
2022/07/27 02:18:15;;;;;;;5.77;4.43;;;20.20;79.80;;;;;;4995041;28;20188;-58
2022/07/27 02:20:41;;;;;;;4.73;4.23;;;20.20;79.70;;;;;;4976433;28;20197;-58
2022/07/27 02:23:07;;;;;;;4.43;3.67;;;20.20;79.80;;;;;;4998467;28;20192;-58
2022/07/27 02:25:34;;;;;;;5.07;4.30;;;20.20;80.20;;;;;;4977423;28;20193;-58
2022/07/27 02:28:00;;;;;;;6.07;4.40;;;20.20;80.00;;;;;;4963546;28;20263;-58
2022/07/27 02:30:26;;;;;;;4.77;4.37;;;20.20;79.90;;;;;;4981061;28;20192;-58
2022/07/27 02:32:52;;;;;;;6.67;3.93;;;20.20;79.90;;;;;;4962601;28;20208;-58
2022/07/27 02:35:17;;;;;;;5.60;4.33;;;20.20;79.90;;;;;;4994840;28;20184;-58
2022/07/27 02:37:43;;;;;;;4.70;4.30;;;20.20;79.70;;;;;;4976356;28;20199;-58
2022/07/27 02:40:09;;;;;;;5.63;5.00;;;20.20;79.70;;;;;;4978732;28;20199;-58
2022/07/27 02:42:35;;;;;;;7.80;3.97;;;20.20;79.70;;;;;;4961844;28;20206;-58
2022/07/27 02:45:01;;;;;;;5.93;4.43;;;20.20;79.40;;;;;;4990004;28;20192;-58
2022/07/27 02:47:26;;;;;;;5.33;3.93;;;20.20;79.50;;;;;;4999147;28;20200;-58
2022/07/27 02:49:52;;;;;;;4.10;3.40;;;20.20;79.60;;;;;;4994189;28;20203;-58
2022/07/27 02:52:18;;;;;;;6.27;4.43;;;20.20;79.70;;;;;;4978315;28;20219;-57
2022/07/27 02:54:43;;;;;;;4.17;3.87;;;20.20;79.60;;;;;;4968504;28;20234;-57
2022/07/27 02:57:09;;;;;;;4.23;3.83;;;20.20;79.60;;;;;;4962423;28;20242;-57
2022/07/27 02:59:34;;;;;;;4.47;3.93;;;20.30;79.30;;;;;;4966255;28;20182;-57
2022/07/27 03:02:00;;;;;;;5.47;3.97;;;20.20;79.40;;;;;;4985422;28;20188;-57
2022/07/27 03:04:26;;;;;;;4.60;4.20;;;20.20;79.40;;;;;;4968421;28;20188;-57
2022/07/27 03:06:52;;;;;;;4.87;4.37;;;20.20;79.50;;;;;;4990947;28;20188;-57
2022/07/27 03:09:17;;;;;;;4.90;3.80;;;20.20;79.60;;;;;;4994121;28;20196;-57
2022/07/27 03:11:43;;;;;;;4.73;4.10;;;20.20;79.60;;;;;;4993729;28;20219;-58
2022/07/27 03:14:09;;;;;;;4.50;3.50;;;20.20;79.50;;;;;;4993640;28;20224;-58
2022/07/27 03:16:34;;;;;;;5.63;4.40;;;20.20;79.20;;;;;;5010256;28;20180;-58
2022/07/27 03:19:00;;;;;;;9.87;4.37;;;20.20;79.10;;;;;;4974290;28;20240;-58
2022/07/27 03:21:26;;;;;;;4.17;3.43;;;20.20;79.10;;;;;;4980684;28;20193;-58
2022/07/27 03:23:51;;;;;;;3.43;3.13;;;20.20;79.10;;;;;;4995750;28;20195;-58
2022/07/27 03:26:18;;;;;;;6.80;3.73;;;20.20;78.90;;;;;;4994224;28;20224;-58
2022/07/27 03:28:44;;;;;;;5.43;3.50;;;20.10;78.90;;;;;;4977560;28;20196;-58
2022/07/27 03:31:10;;;;;;;5.60;4.20;;;20.10;78.50;;;;;;4993173;28;20207;-58
2022/07/27 03:33:35;;;;;;;6.57;4.27;;;20.10;78.50;;;;;;5010502;28;20198;-58
2022/07/27 03:36:02;;;;;;;3.80;3.37;;;20.10;78.60;;;;;;5009704;28;20188;-58
2022/07/27 03:38:28;;;;;;;5.30;3.80;;;20.10;78.60;;;;;;4993315;28;20216;-58
2022/07/27 03:40:54;;;;;;;4.17;3.77;;;20.10;78.50;;;;;;4993560;28;20231;-58
2022/07/27 03:43:19;;;;;;;3.83;3.50;;;20.10;78.70;;;;;;4961314;28;20219;-58
2022/07/27 03:45:45;;;;;;;3.57;3.27;;;20.10;78.90;;;;;;4985497;28;20219;-58
2022/07/27 03:48:11;;;;;;;4.10;3.70;;;20.00;79.10;;;;;;4992088;28;20193;-58
2022/07/27 03:50:37;;;;;;;4.37;3.23;;;20.10;78.90;;;;;;4957998;28;20219;-58
2022/07/27 03:53:02;;;;;;;5.50;3.50;;;20.00;78.90;;;;;;4974434;28;20259;-58
2022/07/27 03:55:28;;;;;;;3.80;3.50;;;20.00;78.90;;;;;;4993527;28;20245;-58
2022/07/27 03:57:54;;;;;;;3.97;3.67;;;20.00;79.00;;;;;;4977530;28;20193;-58
2022/07/27 04:00:20;;;;;;;4.83;3.67;;;20.10;79.20;;;;;;4993387;28;20192;-58
2022/07/27 04:02:46;;;;;;;4.40;4.00;;;20.00;78.90;;;;;;4974810;28;20189;-58
2022/07/27 04:05:12;;;;;;;5.50;3.93;;;20.00;78.90;;;;;;4995555;28;20195;-58
2022/07/27 04:07:38;;;;;;;6.70;4.07;;;20.00;79.00;;;;;;4985443;28;20203;-58
2022/07/27 04:10:05;;;;;;;4.60;4.10;;;20.00;79.30;;;;;;5000782;28;20287;-58
2022/07/27 04:12:31;;;;;;;4.43;3.30;;;20.00;79.40;;;;;;4961341;28;20714;-58
2022/07/27 04:14:57;;;;;;;4.13;3.73;;;20.00;79.40;;;;;;4977149;28;20192;-58
2022/07/27 04:17:23;;;;;;;4.47;3.70;;;20.00;79.50;;;;;;4977579;28;20180;-58
2022/07/27 04:19:48;;;;;;;5.00;4.47;;;20.00;79.60;;;;;;4993019;28;20279;-58
2022/07/27 04:22:14;;;;;;;4.07;3.67;;;20.00;79.50;;;;;;4990801;28;20193;-58
2022/07/27 04:24:40;;;;;;;3.77;3.47;;;20.00;79.30;;;;;;4980463;28;20200;-58
2022/07/27 04:27:05;;;;;;;4.50;3.33;;;20.10;78.90;;;;;;4993509;28;20199;-58
2022/07/27 04:29:31;;;;;;;6.70;3.70;;;20.10;78.80;;;;;;5009741;28;20220;-58
2022/07/27 04:31:56;;;;;;;3.67;3.33;;;20.10;78.80;;;;;;4996660;28;20223;-58
2022/07/27 04:34:22;;;;;;;7.63;3.60;;;20.10;78.70;;;;;;5007424;28;20188;-58
2022/07/27 04:36:49;;;;;;;4.20;3.80;;;20.10;79.10;;;;;;4997529;28;20198;-58
2022/07/27 04:39:15;;;;;;;3.70;3.40;;;20.10;79.30;;;;;;4996680;28;20188;-58
2022/07/27 04:41:41;;;;;;;3.87;3.43;;;20.10;79.50;;;;;;4998962;28;20246;-58
2022/07/27 04:44:07;;;;;;;4.87;3.70;;;20.10;79.20;;;;;;4980622;28;20196;-58
2022/07/27 04:46:32;;;;;;;4.27;3.83;;;20.10;79.10;;;;;;4964223;28;20207;-58
2022/07/27 04:48:58;;;;;;;4.90;4.03;;;20.00;78.90;;;;;;4998568;28;20180;-58
2022/07/27 04:51:24;;;;;;;3.77;3.47;;;20.10;78.80;;;;;;4988099;28;20213;-58
2022/07/27 04:53:49;;;;;;;5.87;3.47;;;20.10;78.90;;;;;;5000769;28;20183;-58
2022/07/27 04:56:15;;;;;;;6.13;3.80;;;20.10;79.10;;;;;;4977383;28;20284;-58
2022/07/27 04:58:41;;;;;;;3.47;3.17;;;20.10;79.10;;;;;;4988411;28;20192;-56
2022/07/27 05:01:09;;;;;;;3.90;3.10;;;20.20;78.40;;;;;;4996624;28;20219;-57
2022/07/27 05:03:35;;;;;;;4.00;3.47;;;20.20;78.20;;;;;;5013251;28;20200;-56
2022/07/27 05:06:00;;;;;;;3.37;3.07;;;20.20;77.90;;;;;;5003663;28;20300;-56
2022/07/27 05:08:26;;;;;;;3.73;2.97;;;20.30;77.50;;;;;;5012974;28;20188;-55
2022/07/27 05:10:52;;;;;;;3.30;3.00;;;20.30;77.20;;;;;;4964368;28;20216;-56
2022/07/27 05:13:17;;;;;;;3.20;2.90;;;20.40;77.10;;;;;;4977058;28;20248;-56
2022/07/27 05:15:43;;;;;;;3.50;3.03;;;20.40;77.00;;;;;;4995935;28;20188;-56
2022/07/27 05:18:09;;;;;;;3.90;2.90;;;20.40;76.90;;;;;;4977162;28;20189;-56
2022/07/27 05:20:35;;;;;;;5.20;3.17;;;20.40;76.80;;;;;;4993676;28;20187;-56
2022/07/27 05:23:01;;;;;;;3.60;2.87;;;20.40;76.90;;;;;;4979982;28;20193;-56
2022/07/27 05:25:26;;;;;;;5.77;3.17;;;20.50;76.70;;;;;;4978340;28;20359;-56
2022/07/27 05:27:52;;;;;;;3.87;3.17;;;20.50;76.50;;;;;;4980059;28;20203;-55
2022/07/27 05:30:19;;;;;;;3.17;2.87;;;20.50;76.40;;;;;;4995732;28;20252;-56
2022/07/27 05:32:45;;;;;;;3.60;3.03;;;20.50;76.30;;;;;;4963777;28;20239;-57
2022/07/27 05:35:11;;;;;;;4.30;2.97;;;20.50;76.20;;;;;;4980267;28;20266;-57
2022/07/27 05:37:36;;;;;;;3.23;2.90;;;20.50;76.10;;;;;;4996125;28;20219;-57
2022/07/27 05:40:07;;;;;;;4.03;3.50;;;20.50;76.10;;;;;;4987838;28;20180;-57
2022/07/27 05:42:33;;;;;;;3.20;2.90;;;20.60;76.20;;;;;;4995770;28;20235;-58
2022/07/27 05:44:59;;;;;;;5.03;2.77;;;20.50;76.30;;;;;;4979667;28;20189;-58
2022/07/27 05:47:25;;;;;;;6.00;2.97;;;20.50;76.50;;;;;;4976527;28;20233;-59
2022/07/27 05:49:50;;;;;;;3.77;3.20;;;20.50;76.30;;;;;;4991004;28;20188;-58
2022/07/27 05:52:16;;;;;;;4.87;3.20;;;20.60;76.20;;;;;;4963087;28;20204;-59
2022/07/27 05:54:46;;;;;;;9.23;3.53;;;20.60;76.20;;;;;;4979535;28;20184;-58
2022/07/27 05:57:14;;;;;;;9.27;3.67;;;20.60;76.20;;;;;;4995138;28;20189;-58
2022/07/27 05:59:40;;;;;;;5.17;3.20;;;20.60;76.20;;;;;;4996035;28;20202;-58
2022/07/27 06:02:06;;;;;;;4.03;3.23;;;20.70;76.20;;;;;;4995577;28;20188;-58
2022/07/27 06:04:32;;;;;;;4.17;3.17;;;20.70;76.00;;;;;;4995737;28;20188;-58
2022/07/27 06:09:41;;;;;;;3.23;2.93;;;20.80;75.70;;;;;;4977513;28;20191;-58
2022/07/27 06:12:07;;;;;;;5.20;3.57;;;20.90;75.60;;;;;;4995115;28;20208;-58
2022/07/27 06:14:33;;;;;;;3.53;2.80;;;20.90;75.70;;;;;;4978454;28;20191;-58
2022/07/27 06:16:58;;;;;;;5.37;2.70;;;21.00;74.90;;;;;;4979138;28;20197;-58
2022/07/27 06:19:24;;;;;;;3.00;2.80;;;21.10;74.70;;;;;;4995147;28;20242;-58
2022/07/27 06:21:50;;;;;;;4.13;2.73;;;21.20;74.30;;;;;;4995098;28;20223;-58
2022/07/27 06:24:16;;;;;;;5.00;3.33;;;21.20;73.90;;;;;;5011365;28;20279;-58
2022/07/27 06:26:42;;;;;;;4.47;2.97;;;21.20;73.10;;;;;;4978501;28;20192;-58
2022/07/27 06:29:08;;;;;;;5.47;3.20;;;21.20;72.30;;;;;;4975848;28;20204;-58
2022/07/27 06:31:34;;;;;;;3.67;3.13;;;21.30;73.30;;;;;;4993505;28;20212;-58
2022/07/27 06:33:59;;;;;;;4.47;2.87;;;21.20;73.80;;;;;;4985872;28;20198;-57
2022/07/27 06:36:25;;;;;;;4.17;3.33;;;21.30;73.30;;;;;;5007805;28;20193;-57
2022/07/27 06:38:51;;;;;;;3.70;2.87;;;21.30;73.50;;;;;;4962229;28;20177;-57
2022/07/27 06:41:16;;;;;;;4.47;3.17;;;21.30;73.50;;;;;;5011273;28;20184;-57
2022/07/27 06:43:42;;;;;;;3.30;3.00;;;21.30;73.90;;;;;;4978942;28;20212;-57
2022/07/27 06:46:11;;;;;;;5.80;3.27;;;21.30;74.10;;;;;;4991303;28;20216;-57
2022/07/27 06:48:37;;;;;;;4.93;3.43;;;21.30;74.90;;;;;;5006899;28;20180;-57
2022/07/27 06:51:04;;;;;;;5.37;3.00;;;21.30;74.50;;;;;;4994631;28;20192;-58
2022/07/27 06:53:29;;;;;;;3.40;3.10;;;21.30;73.30;;;;;;4996542;28;20215;-58
2022/07/27 06:55:57;;;;;;;5.43;3.17;;;21.30;73.80;;;;;;4974656;28;20202;-58
2022/07/27 06:58:22;;;;;;;3.27;2.47;;;21.40;74.00;;;;;;4997456;28;20201;-58
2022/07/27 07:00:48;;;;;;;4.40;3.03;;;21.50;74.40;;;;;;5003119;28;20232;-58
2022/07/27 07:03:14;;;;;;;4.13;2.77;;;21.50;74.60;;;;;;4978342;28;20215;-58
2022/07/27 07:05:45;;;;;;;4.60;3.27;;;21.60;74.60;;;;;;4978326;28;20238;-56
2022/07/27 07:08:12;;;;;;;4.23;3.23;;;21.70;74.60;;;;;;5003525;28;20192;-57
2022/07/27 07:10:42;;;;;;;6.03;3.53;;;21.70;74.00;;;;;;4985657;28;20192;-57
2022/07/27 07:13:08;;;;;;;7.27;3.10;;;21.70;74.30;;;;;;4998687;28;20319;-56
2022/07/27 07:15:35;;;;;;;4.33;3.00;;;21.80;74.00;;;;;;5002789;28;20263;-56
2022/07/27 07:18:02;;;;;;;3.57;3.17;;;21.80;73.60;;;;;;4993636;28;20184;-56
2022/07/27 07:20:29;;;;;;;4.57;3.33;;;21.80;72.90;;;;;;4994501;28;20208;-56
2022/07/27 07:22:55;;;;;;;4.33;3.10;;;21.80;73.20;;;;;;4990607;28;20223;-57
2022/07/27 07:25:20;;;;;;;5.30;3.23;;;21.80;73.50;;;;;;4991250;28;20196;-56
2022/07/27 07:27:47;;;;;;;3.43;3.13;;;21.80;73.90;;;;;;4976023;28;20196;-56
2022/07/27 07:30:13;;;;;;;3.63;3.10;;;21.80;73.20;;;;;;4976403;28;20188;-56
2022/07/27 07:32:39;;;;;;;4.07;3.27;;;21.80;73.00;;;;;;4984614;28;20220;-56
2022/07/27 07:35:05;;;;;;;3.93;2.97;;;21.80;72.60;;;;;;4991685;28;20193;-56
2022/07/27 07:37:31;;;;;;;5.53;3.33;;;21.80;72.40;;;;;;4989295;28;20189;-55
2022/07/27 07:39:58;;;;;;;4.07;3.23;;;21.90;72.30;;;;;;4975801;28;20188;-56
2022/07/27 07:42:24;;;;;;;3.23;2.93;;;21.90;72.70;;;;;;4989272;28;20223;-55
2022/07/27 07:44:49;;;;;;;5.03;3.13;;;22.00;72.80;;;;;;4987381;28;20181;-56
2022/07/27 07:47:15;;;;;;;3.50;2.97;;;22.00;72.80;;;;;;4991635;28;20192;-56
2022/07/27 07:49:41;;;;;;;3.50;3.20;;;22.10;73.00;;;;;;4991835;28;20224;-56
2022/07/27 07:52:07;;;;;;;7.20;3.43;;;22.20;72.30;;;;;;4960190;28;20283;-56
2022/07/27 07:54:32;;;;;;;3.23;3.00;;;22.20;72.30;;;;;;4991519;28;20262;-56
2022/07/27 07:56:58;;;;;;;4.23;2.90;;;22.30;72.60;;;;;;4983389;28;20259;-56
2022/07/27 07:59:24;;;;;;;6.30;3.03;;;22.30;72.30;;;;;;4992700;28;20196;-56
2022/07/27 08:01:50;;;;;;;6.07;3.37;;;22.30;72.10;;;;;;4975002;28;20247;-56
2022/07/27 08:04:15;;;;;;;4.40;2.90;;;22.30;71.80;;;;;;4959198;28;20203;-56
2022/07/27 08:06:41;;;;;;;3.80;3.10;;;22.40;71.70;;;;;;4994976;28;20195;-56
2022/07/27 08:09:07;;;;;;;4.67;3.03;;;22.40;72.60;;;;;;4962874;28;20192;-56
2022/07/27 08:11:33;;;;;;;4.67;3.27;;;22.50;72.20;;;;;;4978960;28;20212;-56
2022/07/27 08:13:59;;;;;;;3.40;3.10;;;22.50;71.50;;;;;;4979271;28;20243;-57
2022/07/27 08:16:25;;;;;;;8.73;3.10;;;22.50;71.30;;;;;;4994878;28;20287;-57
2022/07/27 08:18:50;;;;;;;3.50;3.20;;;22.50;71.30;;;;;;4979778;28;20203;-57
2022/07/27 08:21:16;;;;;;;3.67;3.37;;;22.50;70.90;;;;;;4993144;28;20276;-57
2022/07/27 08:23:42;;;;;;;3.50;3.20;;;22.50;71.10;;;;;;4978615;28;20251;-56
2022/07/27 08:26:07;;;;;;;3.97;3.60;;;22.50;71.10;;;;;;4977569;28;20204;-56
2022/07/27 08:28:33;;;;;;;3.27;2.87;;;22.60;72.10;;;;;;4994875;28;20188;-56
2022/07/27 08:30:59;;;;;;;4.07;3.40;;;22.60;72.90;;;;;;4996869;28;20236;-56
2022/07/27 08:33:24;;;;;;;4.37;3.37;;;22.60;74.10;;;;;;4978759;28;20216;-57
2022/07/27 08:35:51;;;;;;;3.77;3.07;;;22.60;74.10;;;;;;4994998;28;20189;-56
2022/07/27 08:38:17;;;;;;;3.67;3.37;;;22.60;74.90;;;;;;4995110;28;20214;-56
2022/07/27 08:40:43;;;;;;;4.20;3.13;;;22.60;75.00;;;;;;4994418;28;20188;-56
2022/07/27 08:43:10;;;;;;;5.07;3.50;;;22.70;73.30;;;;;;4962147;28;20193;-56
2022/07/27 08:45:36;;;;;;;3.80;3.50;;;22.70;73.90;;;;;;4983192;28;20193;-56
2022/07/27 08:48:03;;;;;;;5.07;3.53;;;22.70;74.00;;;;;;4989966;28;20184;-56
2022/07/27 08:50:33;;;;;;;4.07;3.77;;;22.70;74.20;;;;;;4983037;28;20189;-56
2022/07/27 08:53:11;;;;;;;3.20;2.97;;;22.60;73.30;;;;;;4984728;28;20215;-56
2022/07/27 08:55:40;;;;;;;3.40;3.10;;;22.60;73.50;;;;;;4997724;28;20192;-56
2022/07/27 08:58:07;;;;;;;3.30;3.10;;;22.60;73.10;;;;;;4994430;28;20268;-57
2022/07/27 09:00:35;;;;;;;4.03;3.10;;;22.50;73.40;;;;;;4978235;28;20173;-57
2022/07/27 09:03:01;;;;;;;3.43;3.13;;;22.60;73.90;;;;;;4993305;28;20184;-56
2022/07/27 09:05:27;;;;;;;3.30;2.90;;;22.60;74.10;;;;;;4976101;28;20224;-56
2022/07/27 09:07:53;;;;;;;3.20;2.90;;;22.60;74.60;;;;;;4994045;28;20191;-56
2022/07/27 09:10:37;;;;;;;4.23;3.20;;;22.60;74.70;;;;;;5011403;28;20185;-58
2022/07/27 09:13:22;;;;;;;3.40;3.10;;;22.50;75.50;;;;;;4994989;28;20227;-58
2022/07/27 09:15:54;;;;;;;4.03;3.03;;;22.50;75.10;;;;;;5008944;28;20188;-57
2022/07/27 09:18:22;;;;;;;3.60;3.30;;;22.50;75.30;;;;;;4993504;28;20313;-57
2022/07/27 09:21:15;;;;;;;4.07;3.40;;;22.50;74.90;;;;;;4994122;28;20276;-57
2022/07/27 09:23:51;;;;;;;3.90;2.90;;;22.50;76.10;;;;;;4988710;28;20219;-57
2022/07/27 09:26:25;;;;;;;3.60;3.30;;;22.50;76.70;;;;;;4983820;28;20183;-57
2022/07/27 09:28:56;;;;;;;3.97;3.57;;;22.50;76.60;;;;;;4993487;28;20177;-56
2022/07/27 09:31:22;;;;;;;4.37;3.93;;;22.60;78.80;;;;;;5009475;28;20188;-57
2022/07/27 09:33:50;;;;;;;4.23;3.83;;;22.60;79.60;;;;;;5008848;28;20177;-56
2022/07/27 09:36:17;;;;;;;4.60;3.73;;;22.50;79.40;;;;;;5012404;28;20183;-56
2022/07/27 09:39:05;;;;;;;4.83;3.60;;;22.40;78.40;;;;;;5005933;28;20181;-56
2022/07/27 09:42:11;;;;;;;4.17;3.77;;;22.40;78.70;;;;;;4995322;28;20227;-56
2022/07/27 09:44:42;;;;;;;4.80;3.70;;;22.40;78.80;;;;;;5006384;28;20191;-57
2022/07/27 09:47:27;;;;;;;5.77;3.97;;;22.50;79.00;;;;;;4996630;28;20191;-57
2022/07/27 09:49:55;;;;;;;4.57;4.00;;;22.50;78.30;;;;;;4978807;28;20186;-56
2022/07/27 09:52:27;;;;;;;4.50;4.10;;;22.60;78.80;;;;;;4992884;28;20208;-56
2022/07/27 09:54:53;;;;;;;6.97;4.17;;;22.70;78.10;;;;;;5011350;28;20265;-56
2022/07/27 09:57:19;;;;;;;3.67;3.33;;;22.80;77.70;;;;;;4975958;28;20231;-56
2022/07/27 09:59:45;;;;;;;4.10;3.70;;;22.90;74.10;;;;;;4988525;28;20279;-57
2022/07/27 10:02:14;;;;;;;4.43;4.03;;;22.90;75.60;;;;;;4979707;28;20188;-57
2022/07/27 10:04:40;;;;;;;3.87;3.57;;;23.00;75.40;;;;;;4996158;28;20200;-57
2022/07/27 10:07:06;;;;;;;4.10;3.63;;;23.10;75.70;;;;;;4995462;28;20196;-57
2022/07/27 10:09:33;;;;;;;4.13;3.83;;;23.10;75.80;;;;;;4964570;28;20203;-57
2022/07/27 10:12:00;;;;;;;7.33;4.13;;;23.10;75.40;;;;;;4994450;28;20220;-57
2022/07/27 10:14:26;;;;;;;4.47;4.07;;;23.20;76.10;;;;;;4961703;28;20283;-56
2022/07/27 10:16:52;;;;;;;5.53;3.63;;;23.20;75.90;;;;;;4964033;28;20336;-56
2022/07/27 10:19:24;;;;;;;4.07;3.67;;;23.20;75.90;;;;;;4946222;28;20196;-57
2022/07/27 10:21:50;;;;;;;4.37;3.90;;;23.30;76.10;;;;;;4959836;28;20189;-57
2022/07/27 10:24:32;;;;;;;4.27;3.87;;;23.30;75.40;;;;;;4966582;28;20193;-56
2022/07/27 10:26:58;;;;;;;5.23;4.13;;;23.30;73.90;;;;;;4959535;28;20195;-56
2022/07/27 10:29:24;;;;;;;3.80;3.50;;;23.30;74.60;;;;;;4958236;28;20189;-56
2022/07/27 10:31:53;;;;;;;4.20;3.80;;;23.30;74.70;;;;;;4959211;28;20239;-56
2022/07/27 10:34:36;;;;;;;5.67;3.67;;;23.40;74.70;;;;;;4966080;28;20186;-56
2022/07/27 10:37:10;;;;;;;4.50;3.93;;;23.40;74.10;;;;;;4980927;28;20177;-57
2022/07/27 10:39:39;;;;;;;4.07;3.77;;;23.40;74.90;;;;;;4977006;28;20185;-57
2022/07/27 10:42:24;;;;;;;4.30;3.90;;;23.50;75.10;;;;;;4968079;28;20286;-57
2022/07/27 10:45:07;;;;;;;4.10;3.70;;;23.50;74.80;;;;;;4988032;28;20185;-57
2022/07/27 10:47:39;;;;;;;4.10;3.77;;;23.50;74.50;;;;;;4958724;28;20194;-57
2022/07/27 10:50:17;;;;;;;3.53;3.23;;;23.60;75.40;;;;;;4958968;28;20188;-57
2022/07/27 10:52:54;;;;;;;4.37;3.70;;;23.70;71.50;;;;;;4965147;28;20201;-57
2022/07/27 10:55:32;;;;;;;3.80;3.37;;;23.70;72.50;;;;;;4964876;28;20180;-57
2022/07/27 10:58:17;;;;;;;4.20;3.80;;;23.70;71.60;;;;;;4957494;28;20210;-57
2022/07/27 11:00:48;;;;;;;4.70;3.70;;;23.80;72.20;;;;;;4970082;28;20185;-57
2022/07/27 11:03:26;;;;;;;3.47;3.10;;;23.80;67.90;;;;;;4950986;28;20280;-57
2022/07/27 11:06:17;;;;;;;5.47;3.67;;;23.70;69.20;;;;;;4968697;28;20208;-57
2022/07/27 11:08:45;;;;;;;5.00;3.70;;;23.80;67.70;;;;;;4959412;28;20180;-57
2022/07/27 11:11:20;;;;;;;4.00;3.30;;;23.70;69.10;;;;;;4955662;29;20196;-57
2022/07/27 11:13:48;;;;;;;3.67;3.37;;;23.70;68.60;;;;;;5000872;28;20228;-57
2022/07/27 11:16:15;;;;;;;4.40;4.00;;;23.80;68.40;;;;;;4993696;28;20185;-57
2022/07/27 11:18:42;;;;;;;3.57;3.27;;;23.80;68.90;;;;;;5006167;28;20222;-57
2022/07/27 11:21:21;;;;;;;4.23;3.60;;;23.80;68.80;;;;;;4989239;28;20188;-57
2022/07/27 11:23:50;;;;;;;4.90;3.70;;;23.90;69.70;;;;;;4993092;28;20176;-57
2022/07/27 11:26:15;;;;;;;4.10;3.70;;;23.90;69.40;;;;;;4981181;28;20189;-57
2022/07/27 11:28:42;;;;;;;5.30;3.97;;;23.90;69.40;;;;;;4989561;28;20194;-57
2022/07/27 11:31:09;;;;;;;4.23;3.93;;;24.00;69.40;;;;;;4960148;28;20193;-57
2022/07/27 11:33:36;;;;;;;4.60;3.73;;;24.00;69.90;;;;;;5000038;28;20268;-57
2022/07/27 11:36:06;;;;;;;5.47;4.03;;;23.90;70.60;;;;;;4989969;28;20187;-57
2022/07/27 11:38:53;;;;;;;4.73;4.23;;;24.00;71.20;;;;;;4975326;28;20188;-57
2022/07/27 11:41:29;;;;;;;4.40;4.00;;;24.00;71.40;;;;;;5004674;28;20243;-57
2022/07/27 11:43:59;;;;;;;4.30;3.90;;;24.00;71.80;;;;;;4991129;28;20184;-57
2022/07/27 11:46:31;;;;;;;4.87;4.10;;;23.90;72.70;;;;;;4992380;28;20177;-57
2022/07/27 11:49:03;;;;;;;4.00;3.60;;;23.90;72.50;;;;;;5000198;28;20184;-57
2022/07/27 11:51:29;;;;;;;5.53;3.83;;;23.80;73.00;;;;;;5004473;28;20187;-57
2022/07/27 11:54:01;;;;;;;5.10;4.60;;;23.80;72.30;;;;;;4990569;28;20180;-57
2022/07/27 11:56:31;;;;;;;4.53;4.13;;;23.80;72.50;;;;;;5006080;28;20188;-57
2022/07/27 11:59:07;;;;;;;4.73;3.77;;;23.70;72.20;;;;;;4990350;28;20185;-57
2022/07/27 12:01:35;;;;;;;4.30;4.00;;;23.70;73.10;;;;;;4990004;28;20187;-57
2022/07/27 12:04:14;;;;;;;4.73;4.03;;;23.70;73.00;;;;;;4993592;28;20215;-57
2022/07/27 12:06:46;;;;;;;5.27;3.77;;;23.70;73.20;;;;;;4991643;28;20256;-57
2022/07/27 12:09:14;;;;;;;5.23;4.73;;;23.70;73.60;;;;;;4989047;28;20207;-57
2022/07/27 12:11:49;;;;;;;4.50;4.10;;;23.70;73.60;;;;;;5009417;28;20212;-57
2022/07/27 12:14:38;;;;;;;5.37;4.07;;;23.70;73.90;;;;;;4986511;28;20231;-57
2022/07/27 12:17:25;;;;;;;4.27;3.73;;;23.70;74.00;;;;;;4987729;28;20211;-57
2022/07/27 12:20:08;;;;;;;5.67;4.43;;;23.70;74.40;;;;;;5005811;28;20187;-58
2022/07/27 12:22:55;;;;;;;4.60;4.20;;;23.70;74.40;;;;;;4994651;28;20180;-58
2022/07/27 12:25:20;;;;;;;4.23;3.83;;;23.60;74.80;;;;;;4995654;28;20192;-57
2022/07/27 12:28:06;;;;;;;4.53;4.13;;;23.70;74.60;;;;;;4988617;28;20192;-58
2022/07/27 12:30:50;;;;;;;4.40;4.00;;;23.70;74.70;;;;;;4996493;28;20189;-57
2022/07/27 12:33:28;;;;;;;4.83;4.27;;;23.70;74.10;;;;;;4996498;28;20211;-57
2022/07/27 12:35:54;;;;;;;5.70;3.83;;;23.70;74.10;;;;;;4997416;28;20280;-57
2022/07/27 12:38:20;;;;;;;5.20;4.20;;;23.70;73.00;;;;;;4992703;28;20184;-57
2022/07/27 12:40:47;;;;;;;4.30;3.90;;;23.80;73.60;;;;;;4985381;28;20256;-57
2022/07/27 12:43:18;;;;;;;5.50;4.40;;;23.80;73.50;;;;;;4992902;28;20248;-57
2022/07/27 12:45:45;;;;;;;4.37;3.97;;;23.80;74.10;;;;;;4992502;28;20196;-57
2022/07/27 12:48:16;;;;;;;5.50;3.83;;;23.80;74.30;;;;;;4970056;28;20213;-57
2022/07/27 12:50:47;;;;;;;4.07;3.67;;;23.80;74.50;;;;;;4992292;28;20189;-57
2022/07/27 12:53:15;;;;;;;8.93;4.63;;;23.80;73.90;;;;;;5013468;28;20236;-57
2022/07/27 12:55:42;;;;;;;8.50;3.70;;;23.80;73.40;;;;;;4996597;28;20188;-57
2022/07/27 12:58:09;;;;;;;4.93;4.20;;;23.80;73.60;;;;;;4996525;28;20196;-57